Time;durP1;ratioP1;P1;durP2;ratioP2;P2;SDS_P1;SDS_P2;PMS_P1;PMS_P2;Temp;Humidity;BMP_temperature;BMP_pressure;BME280_temperature;BME280_humidity;BME280_pressure;Samples;Min_cycle;Max_cycle;Signal;HPM_P1;HPM_P2
2022/03/12 00:01:21;;;;;;;23.70;15.88;;;;;;;10.87;36.71;101162.91;5108307;28;20060;-66
2022/03/12 00:03:47;;;;;;;20.17;14.73;;;;;;;10.85;36.34;101161.28;5060571;28;20422;-66
2022/03/12 00:06:13;;;;;;;19.88;15.45;;;;;;;10.93;36.42;101172.34;5066391;28;20044;-67
2022/03/12 00:08:44;;;;;;;22.33;16.27;;;;;;;10.87;36.49;101162.91;5082676;28;20022;-66
2022/03/12 00:11:15;;;;;;;20.40;15.35;;;;;;;10.84;36.28;101149.81;5104779;28;20028;-66
2022/03/12 00:13:40;;;;;;;23.75;15.52;;;;;;;10.93;36.55;101163.50;5087431;28;20023;-66
2022/03/12 00:16:13;;;;;;;21.63;15.73;;;;;;;10.91;36.75;101169.78;5092607;28;20020;-67
2022/03/12 00:18:39;;;;;;;22.88;16.15;;;;;;;10.89;36.83;101174.34;5094027;28;20016;-66
2022/03/12 00:21:06;;;;;;;21.20;16.50;;;;;;;10.89;37.19;101170.81;5094437;28;20023;-66
2022/03/12 00:23:34;;;;;;;20.95;16.25;;;;;;;10.92;37.04;101181.28;5100628;28;20016;-66
2022/03/12 00:26:01;;;;;;;22.08;16.55;;;;;;;10.90;37.16;101173.38;5100136;28;20044;-66
2022/03/12 00:28:26;;;;;;;20.08;15.45;;;;;;;10.90;37.19;101175.19;5095041;28;20038;-67
2022/03/12 00:30:52;;;;;;;20.98;15.43;;;;;;;10.89;37.31;101178.81;5096963;28;20549;-66
2022/03/12 00:33:19;;;;;;;21.70;15.60;;;;;;;10.85;37.21;101171.94;5089747;28;20455;-66
2022/03/12 00:35:50;;;;;;;22.85;15.88;;;;;;;10.86;37.02;101187.84;5075715;28;20098;-66
2022/03/12 00:38:22;;;;;;;20.55;15.20;;;;;;;10.92;37.32;101191.94;5102393;28;20363;-66
2022/03/12 00:40:48;;;;;;;21.10;15.70;;;;;;;10.91;37.45;101198.19;5063062;28;20055;-66
2022/03/12 00:43:14;;;;;;;20.40;15.52;;;;;;;10.86;37.74;101195.81;5079336;28;20458;-66
2022/03/12 00:45:40;;;;;;;20.10;16.02;;;;;;;10.84;38.02;101192.38;5090014;28;20059;-67
2022/03/12 00:48:08;;;;;;;23.27;16.13;;;;;;;10.80;39.11;101204.16;5099633;28;20064;-67
2022/03/12 00:50:36;;;;;;;22.05;15.70;;;;;;;10.83;39.01;101201.31;5101909;28;20023;-66
2022/03/12 00:53:02;;;;;;;19.17;15.85;;;;;;;10.84;40.22;101199.50;5108662;28;20028;-66
2022/03/12 00:55:28;;;;;;;28.33;17.63;;;;;;;10.78;40.82;101198.06;5079192;28;20062;-67
2022/03/12 00:57:54;;;;;;;21.33;16.83;;;;;;;10.73;40.32;101202.78;5097053;28;20019;-66
2022/03/12 01:00:21;;;;;;;21.02;15.70;;;;;;;10.75;40.78;101197.38;5108606;28;20019;-66
2022/03/12 01:02:47;;;;;;;25.65;16.77;;;;;;;10.75;40.61;101186.75;5104629;28;20031;-66
2022/03/12 01:05:16;;;;;;;19.98;15.82;;;;;;;10.71;40.99;101193.16;5095822;28;20445;-66
2022/03/12 01:07:42;;;;;;;25.35;16.38;;;;;;;10.67;40.72;101195.16;5097052;28;20062;-67
2022/03/12 01:10:08;;;;;;;21.25;16.08;;;;;;;10.62;40.75;101189.28;5092480;28;20054;-66
2022/03/12 01:12:34;;;;;;;20.05;15.63;;;;;;;10.67;40.92;101198.66;5094615;28;20520;-66
2022/03/12 01:15:00;;;;;;;21.50;15.75;;;;;;;10.66;41.36;101202.28;5098272;28;20119;-67
2022/03/12 01:17:25;;;;;;;24.63;15.93;;;;;;;10.64;41.40;101198.00;5060189;28;20024;-66
2022/03/12 01:19:51;;;;;;;22.23;16.90;;;;;;;10.64;41.42;101201.50;5098804;28;20028;-66
2022/03/12 01:22:19;;;;;;;23.48;16.50;;;;;;;10.64;42.43;101212.16;5071386;28;20031;-66
2022/03/12 01:24:45;;;;;;;23.80;16.48;;;;;;;10.60;42.59;101210.63;5060627;28;20039;-66
2022/03/12 01:27:11;;;;;;;23.00;17.40;;;;;;;10.61;42.63;101208.81;5099781;28;20470;-67
2022/03/12 01:29:37;;;;;;;21.60;15.48;;;;;;;10.56;43.91;101213.53;5073711;28;20024;-66
2022/03/12 01:32:03;;;;;;;24.60;16.88;;;;;;;10.57;44.86;101221.44;5097777;28;20042;-66
2022/03/12 01:34:29;;;;;;;22.58;17.23;;;;;;;10.50;45.02;101217.44;5067579;28;20113;-66
2022/03/12 01:36:55;;;;;;;21.02;17.00;;;;;;;10.41;46.14;101221.47;5073451;28;20101;-66
2022/03/12 01:39:23;;;;;;;23.13;16.90;;;;;;;10.32;47.23;101205.16;5078690;28;20023;-66
2022/03/12 01:41:52;;;;;;;24.25;18.02;;;;;;;10.35;47.99;101226.25;5088087;28;20031;-66
2022/03/12 01:44:17;;;;;;;24.08;17.75;;;;;;;10.31;48.57;101222.91;5094955;28;20111;-66
2022/03/12 01:46:49;;;;;;;23.77;18.23;;;;;;;10.23;48.04;101225.97;5092892;28;20025;-67
2022/03/12 01:49:22;;;;;;;22.83;16.40;;;;;;;10.19;49.77;101221.75;5100681;28;20032;-66
2022/03/12 01:51:52;;;;;;;23.30;16.77;;;;;;;10.18;49.64;101216.53;5097860;28;20039;-66
2022/03/12 01:54:25;;;;;;;25.10;18.02;;;;;;;10.16;49.14;101213.94;5093365;28;20051;-67
2022/03/12 01:56:55;;;;;;;25.70;17.95;;;;;;;10.13;50.95;101218.59;5097812;28;20024;-66
2022/03/12 01:59:21;;;;;;;23.33;17.52;;;;;;;10.12;50.01;101216.88;5096566;28;20362;-66
2022/03/12 02:01:51;;;;;;;23.88;17.42;;;;;;;10.08;50.72;101216.16;5074973;28;20036;-66
2022/03/12 02:04:18;;;;;;;21.75;17.35;;;;;;;10.08;49.99;101210.84;5094342;28;20546;-67
2022/03/12 02:06:46;;;;;;;24.42;16.38;;;;;;;10.09;49.45;101211.72;5094049;28;20055;-66
2022/03/12 02:09:14;;;;;;;22.90;17.45;;;;;;;10.12;49.91;101206.25;5080509;28;20056;-67
2022/03/12 02:11:41;;;;;;;22.85;17.33;;;;;;;10.11;49.75;101205.38;5074119;28;20433;-67
2022/03/12 02:14:12;;;;;;;27.05;17.50;;;;;;;10.10;49.57;101202.81;5100779;28;20027;-67
2022/03/12 02:16:42;;;;;;;26.38;18.08;;;;;;;10.11;48.68;101221.31;5076742;28;20024;-66
2022/03/12 02:19:08;;;;;;;24.42;16.83;;;;;;;10.12;49.45;101208.91;5091902;28;20031;-66
2022/03/12 02:21:41;;;;;;;22.23;17.20;;;;;;;10.16;49.72;101221.06;5107168;28;20170;-66
2022/03/12 02:24:09;;;;;;;22.48;16.95;;;;;;;10.17;49.50;101222.78;5087523;28;20387;-67
2022/03/12 02:26:38;;;;;;;20.73;17.15;;;;;;;10.19;50.30;101212.94;5100827;28;20065;-66
2022/03/12 02:29:08;;;;;;;22.20;16.83;;;;;;;10.15;49.56;101206.94;5076454;28;20028;-66
2022/03/12 02:31:33;;;;;;;;;;;;;;;10.24;48.97;101222.38;5105518;28;20030;-66
2022/03/12 02:34:02;;;;;;;19.63;15.82;;;;;;;10.16;50.49;101221.94;5092222;28;19916;-66
2022/03/12 02:36:33;;;;;;;20.50;16.73;;;;;;;10.12;49.89;101215.06;5102746;28;20019;-66
2022/03/12 02:39:04;;;;;;;21.58;15.90;;;;;;;10.18;50.18;101235.16;5075411;28;20479;-66
2022/03/12 02:41:30;;;;;;;21.77;16.83;;;;;;;10.19;50.61;101227.06;5069575;28;20040;-66
2022/03/12 02:43:57;;;;;;;20.30;16.73;;;;;;;10.21;50.26;101230.50;5100461;28;20020;-66
2022/03/12 02:46:28;;;;;;;22.67;16.95;;;;;;;10.20;50.01;101231.44;5105981;28;20383;-66
2022/03/12 02:48:53;;;;;;;21.60;16.38;;;;;;;10.20;50.30;101238.56;5085215;28;20040;-66
2022/03/12 02:51:23;;;;;;;23.33;17.40;;;;;;;10.18;49.94;101240.47;5092360;28;21067;-67
2022/03/12 02:53:51;;;;;;;20.70;15.75;;;;;;;10.17;49.98;101238.72;5088944;28;20028;-67
2022/03/12 02:56:19;;;;;;;22.08;16.75;;;;;;;10.13;50.38;101245.16;5092619;28;20048;-66
2022/03/12 02:58:44;;;;;;;21.95;17.38;;;;;;;10.10;49.65;101243.53;5084945;28;20015;-66
2022/03/12 03:01:14;;;;;;;20.20;17.13;;;;;;;10.11;50.10;101252.34;5079131;28;20779;-67
2022/03/12 03:03:41;;;;;;;35.13;16.85;;;;;;;10.06;50.17;101252.63;5102565;28;20028;-66
2022/03/12 03:06:08;;;;;;;22.92;17.15;;;;;;;10.00;50.50;101247.66;5083140;28;20039;-66
2022/03/12 03:08:36;;;;;;;23.73;16.88;;;;;;;9.99;50.11;101241.44;5082179;28;20032;-67
2022/03/12 03:11:09;;;;;;;27.35;16.63;;;;;;;9.97;50.54;101239.81;5077492;28;20032;-66
2022/03/12 03:13:36;;;;;;;24.75;17.10;;;;;;;9.97;50.90;101250.44;5073018;28;20047;-66
2022/03/12 03:16:22;;;;;;;20.38;16.52;;;;;;;9.89;50.81;101261.50;5084849;28;20023;-67
2022/03/12 03:18:53;;;;;;;25.73;16.55;;;;;;;9.82;51.27;101261.91;5110512;28;20145;-67
2022/03/12 03:21:26;;;;;;;22.08;16.95;;;;;;;9.77;51.41;101257.69;5094556;28;20032;-68
2022/03/12 03:23:53;;;;;;;22.27;17.88;;;;;;;9.74;52.32;101257.00;5101090;28;20095;-66
2022/03/12 03:26:42;;;;;;;18.67;15.93;;;;;;;9.80;52.00;101256.69;5085354;28;20486;-66
2022/03/12 03:29:08;;;;;;;17.88;14.63;;;;;;;9.69;53.39;101246.63;5109235;28;20063;-66
2022/03/12 03:31:36;;;;;;;18.40;14.68;;;;;;;9.68;54.48;101260.84;5104595;28;20068;-66
2022/03/12 03:34:02;;;;;;;16.42;14.25;;;;;;;9.67;55.24;101260.91;5068305;28;20495;-66
2022/03/12 03:36:28;;;;;;;17.42;14.52;;;;;;;9.65;56.62;101265.47;5085049;28;20561;-66
2022/03/12 03:38:54;;;;;;;17.67;14.27;;;;;;;9.65;56.84;101265.47;5112247;28;20123;-67
2022/03/12 03:41:22;;;;;;;18.15;14.15;;;;;;;9.70;56.65;101272.22;5113761;28;20399;-66
2022/03/12 03:43:48;;;;;;;19.65;14.38;;;;;;;9.70;57.21;101266.06;5081793;28;20550;-66
2022/03/12 03:46:22;;;;;;;17.48;13.65;;;;;;;9.72;56.58;101264.19;5080720;28;20031;-66
2022/03/12 03:48:50;;;;;;;16.67;14.00;;;;;;;9.62;56.72;101269.13;5109109;28;20077;-67
2022/03/12 03:51:19;;;;;;;21.02;14.60;;;;;;;9.55;57.58;101267.72;5113716;28;20363;-66
2022/03/12 03:53:45;;;;;;;17.98;14.35;;;;;;;9.58;57.30;101269.38;5093954;28;20031;-66
2022/03/12 03:56:11;;;;;;;16.98;14.07;;;;;;;9.54;58.31;101271.31;5106680;28;20374;-67
2022/03/12 03:58:37;;;;;;;17.40;14.32;;;;;;;9.49;58.12;101279.50;5109327;28;20024;-66
2022/03/12 04:01:11;;;;;;;19.70;14.68;;;;;;;9.53;58.50;101277.59;5086179;28;20416;-66
2022/03/12 04:03:38;;;;;;;22.85;14.85;;;;;;;9.50;58.91;101285.69;5108157;28;20108;-67
2022/03/12 04:06:04;;;;;;;17.48;14.32;;;;;;;9.41;59.08;101280.84;5080015;28;20055;-67
2022/03/12 04:08:31;;;;;;;19.40;13.65;;;;;;;9.42;59.44;101285.25;5095658;28;20024;-66
2022/03/12 04:11:07;;;;;;;19.83;13.20;;;;;;;9.47;59.50;101293.81;5097629;28;20032;-66
2022/03/12 04:13:34;;;;;;;16.02;12.60;;;;;;;9.44;59.94;101292.19;5079510;28;20027;-66
2022/03/12 04:16:00;;;;;;;15.48;12.63;;;;;;;9.37;61.29;101284.59;5093692;28;20051;-66
2022/03/12 04:18:26;;;;;;;15.13;12.85;;;;;;;9.39;61.61;101294.22;5072472;28;20040;-66
2022/03/12 04:20:52;;;;;;;15.60;12.07;;;;;;;9.25;61.14;101300.22;5104858;28;20102;-66
2022/03/12 04:23:21;;;;;;;13.57;11.18;;;;;;;9.35;62.88;101295.28;5096406;28;20023;-66
2022/03/12 04:25:55;;;;;;;13.35;11.18;;;;;;;9.35;63.06;101297.09;5094069;28;20038;-66
2022/03/12 04:28:22;;;;;;;15.75;11.10;;;;;;;9.30;63.90;101297.34;5096949;28;20031;-66
2022/03/12 04:30:48;;;;;;;12.68;11.23;;;;;;;9.23;64.56;101301.22;5106814;28;20030;-66
2022/03/12 04:33:15;;;;;;;12.50;10.23;;;;;;;9.28;64.45;101300.06;5079230;28;20036;-67
2022/03/12 04:35:42;;;;;;;12.15;10.43;;;;;;;9.22;64.82;101300.38;5104368;28;20035;-66
2022/03/12 04:38:09;;;;;;;10.93;9.82;;;;;;;9.15;64.94;101288.34;5101639;28;20024;-66
2022/03/12 04:40:38;;;;;;;12.50;10.10;;;;;;;9.19;65.79;101303.19;5086212;28;20024;-66
2022/03/12 04:43:06;;;;;;;11.70;10.23;;;;;;;9.15;65.83;101301.63;5094160;28;20093;-66
2022/03/12 04:45:31;;;;;;;10.32;9.30;;;;;;;9.11;65.91;101305.34;5093924;28;20475;-66
2022/03/12 04:47:57;;;;;;;12.23;10.15;;;;;;;9.14;65.85;101299.88;5085839;28;20080;-66
2022/03/12 04:50:23;;;;;;;11.35;10.15;;;;;;;9.06;66.38;101291.47;5105113;28;20020;-66
2022/03/12 04:52:52;;;;;;;10.65;9.45;;;;;;;9.00;66.60;101289.97;5104827;28;20035;-66
2022/03/12 04:55:20;;;;;;;11.85;10.40;;;;;;;9.02;67.17;101311.09;5094488;28;20488;-66
2022/03/12 04:57:47;;;;;;;10.93;9.82;;;;;;;8.90;66.40;101304.63;5112235;28;20024;-66
2022/03/12 05:00:25;;;;;;;11.43;9.57;;;;;;;9.00;66.71;101315.63;5091091;28;20019;-66
2022/03/12 05:03:00;;;;;;;10.77;9.68;;;;;;;8.97;67.73;101311.34;5085063;28;20027;-66
2022/03/12 05:05:26;;;;;;;9.50;8.40;;;;;;;8.98;68.26;101309.56;5110144;28;20130;-66
2022/03/12 05:07:52;;;;;;;9.75;8.80;;;;;;;8.98;68.72;101317.50;5093870;28;20111;-66
2022/03/12 05:10:18;;;;;;;9.55;8.45;;;;;;;8.97;69.14;101314.00;5111999;28;20023;-66
2022/03/12 05:12:50;;;;;;;9.18;8.27;;;;;;;9.01;69.55;101309.41;5077602;28;20023;-66
2022/03/12 05:15:17;;;;;;;11.60;9.02;;;;;;;8.99;69.79;101313.91;5073224;28;20028;-66
2022/03/12 05:17:46;;;;;;;9.57;8.38;;;;;;;8.92;69.63;101316.00;5091368;28;20103;-67
2022/03/12 05:20:13;;;;;;;9.68;8.70;;;;;;;9.04;69.65;101325.16;5092594;28;20028;-66
2022/03/12 05:22:39;;;;;;;9.45;8.13;;;;;;;9.05;69.68;101343.66;5098182;28;20077;-66
2022/03/12 05:25:05;;;;;;;9.27;8.32;;;;;;;9.00;70.43;101332.44;5075814;28;20040;-66
2022/03/12 05:27:30;;;;;;;8.73;7.82;;;;;;;9.06;70.11;101325.97;5093135;28;20020;-66
2022/03/12 05:29:56;;;;;;;9.57;8.63;;;;;;;9.00;70.36;101335.09;5060319;28;20384;-66
2022/03/12 05:32:23;;;;;;;8.95;8.05;;;;;;;9.00;70.83;101336.84;5055471;28;20028;-66
2022/03/12 05:34:49;;;;;;;9.38;8.32;;;;;;;9.05;70.33;101348.97;5075631;28;20106;-66
2022/03/12 05:37:15;;;;;;;9.10;8.20;;;;;;;8.97;70.63;101350.25;5071618;28;20123;-66
2022/03/12 05:39:42;;;;;;;9.68;8.68;;;;;;;8.94;70.66;101351.28;5085053;28;20474;-67
2022/03/12 05:42:08;;;;;;;10.10;9.05;;;;;;;8.89;70.53;101355.97;5081383;28;20092;-66
2022/03/12 05:44:36;;;;;;;9.65;8.65;;;;;;;8.85;70.48;101362.31;5076018;28;20038;-66
2022/03/12 05:47:03;;;;;;;10.15;8.65;;;;;;;8.69;70.19;101354.25;5105261;28;20081;-67
2022/03/12 05:49:28;;;;;;;10.73;9.63;;;;;;;8.79;70.34;101357.31;5105136;28;20031;-66
2022/03/12 05:51:55;;;;;;;13.48;9.95;;;;;;;8.73;70.37;101360.25;5091732;28;20024;-66
2022/03/12 05:54:21;;;;;;;14.02;10.90;;;;;;;8.66;70.53;101370.28;5094374;28;20386;-67
2022/03/12 05:56:47;;;;;;;11.25;9.75;;;;;;;8.66;70.45;101365.00;5075857;28;20044;-66
2022/03/12 05:59:15;;;;;;;14.50;11.38;;;;;;;8.70;70.30;101363.91;5093221;28;20106;-66
2022/03/12 06:01:41;;;;;;;12.38;10.70;;;;;;;8.60;70.26;101363.47;5090689;28;20562;-66
2022/03/12 06:04:11;;;;;;;11.50;10.35;;;;;;;8.62;70.32;101371.38;5081053;28;20043;-67
2022/03/12 06:06:37;;;;;;;13.38;10.35;;;;;;;8.57;70.71;101373.38;5096250;28;20043;-66
2022/03/12 06:09:05;;;;;;;13.60;10.90;;;;;;;8.52;71.03;101368.28;5085213;28;20032;-66
2022/03/12 06:11:32;;;;;;;13.68;11.13;;;;;;;8.58;70.87;101362.69;5102750;28;20521;-67
2022/03/12 06:14:00;;;;;;;12.05;10.85;;;;;;;8.58;71.11;101368.00;5073026;28;20066;-66
2022/03/12 06:16:27;;;;;;;13.73;10.95;;;;;;;8.56;71.07;101369.00;5078221;28;20467;-67
2022/03/12 06:18:53;;;;;;;11.95;10.57;;;;;;;8.52;71.59;101370.06;5072526;28;20061;-66
2022/03/12 06:21:19;;;;;;;13.60;10.80;;;;;;;8.48;71.77;101368.50;5073638;28;20030;-66
2022/03/12 06:23:48;;;;;;;11.88;10.68;;;;;;;8.45;72.00;101379.25;5074861;28;20546;-66
2022/03/12 06:26:17;;;;;;;14.55;11.23;;;;;;;8.45;72.06;101380.09;5105451;28;20138;-66
2022/03/12 06:28:44;;;;;;;16.90;10.93;;;;;;;8.56;71.70;101382.25;5086390;28;20478;-66
2022/03/12 06:31:14;;;;;;;13.23;10.73;;;;;;;8.45;72.06;101380.09;5095310;28;20031;-66
2022/03/12 06:33:41;;;;;;;12.27;11.07;;;;;;;8.47;72.19;101390.63;5092604;28;20505;-66
2022/03/12 06:36:08;;;;;;;11.50;10.30;;;;;;;8.42;72.75;101380.25;5104688;28;20077;-66
2022/03/12 06:38:37;;;;;;;14.20;10.93;;;;;;;8.50;72.75;101386.06;5084327;28;20024;-66
2022/03/12 06:41:03;;;;;;;12.23;10.93;;;;;;;8.47;72.86;101388.84;5104344;28;20027;-67
2022/03/12 06:43:30;;;;;;;12.45;11.13;;;;;;;8.50;72.64;101388.72;5090376;28;20024;-66
2022/03/12 06:46:02;;;;;;;13.80;11.48;;;;;;;8.54;72.75;101403.53;5107086;28;20098;-66
2022/03/12 06:48:28;;;;;;;13.15;10.98;;;;;;;8.58;72.74;101399.81;5092287;28;20024;-66
2022/03/12 06:50:56;;;;;;;13.00;10.75;;;;;;;8.64;72.94;101406.63;5111920;28;20027;-66
2022/03/12 06:53:23;;;;;;;11.43;10.32;;;;;;;8.62;72.83;101404.06;5095954;28;20032;-66
2022/03/12 06:55:49;;;;;;;13.73;10.45;;;;;;;8.67;72.62;101400.31;5095653;28;20032;-66
2022/03/12 06:58:15;;;;;;;10.95;9.40;;;;;;;8.70;73.05;101403.69;5059778;28;20163;-66
2022/03/12 07:00:43;;;;;;;13.02;10.75;;;;;;;8.75;72.97;101403.47;5111838;28;20102;-66
2022/03/12 07:03:09;;;;;;;10.98;9.75;;;;;;;8.72;73.41;101409.78;5114538;28;20027;-67
2022/03/12 07:05:35;;;;;;;11.20;10.00;;;;;;;8.76;73.08;101416.66;5087105;28;20140;-66
2022/03/12 07:08:00;;;;;;;11.60;10.27;;;;;;;8.76;73.15;101416.66;5078511;28;20115;-66
2022/03/12 07:10:26;;;;;;;11.75;9.93;;;;;;;8.86;72.98;101417.09;5111066;28;20574;-66
2022/03/12 07:12:51;;;;;;;13.98;9.98;;;;;;;8.87;73.06;101410.88;5083137;28;20048;-67
2022/03/12 07:15:19;;;;;;;12.80;11.07;;;;;;;8.90;73.08;101421.31;5112670;28;20023;-67
2022/03/12 07:17:45;;;;;;;11.20;10.10;;;;;;;8.92;73.11;101426.56;5100911;28;20039;-66
2022/03/12 07:20:13;;;;;;;12.73;10.40;;;;;;;8.93;73.11;101429.13;5095148;28;20020;-66
2022/03/12 07:22:40;;;;;;;12.80;10.50;;;;;;;8.99;72.97;101433.31;5079025;28;20387;-67
2022/03/12 07:25:07;;;;;;;12.75;10.25;;;;;;;9.02;73.06;101430.50;5107627;28;20027;-67
2022/03/12 07:27:33;;;;;;;11.75;10.55;;;;;;;9.06;72.50;101432.09;5100040;28;20042;-66
2022/03/12 07:30:00;;;;;;;12.20;10.45;;;;;;;9.14;72.50;101442.31;5077397;28;20115;-67
2022/03/12 07:32:29;;;;;;;10.93;9.65;;;;;;;9.17;72.48;101442.19;5096641;28;20035;-67
2022/03/12 07:34:54;;;;;;;10.93;9.82;;;;;;;9.27;72.03;101436.38;5104744;28;20027;-66
2022/03/12 07:37:21;;;;;;;11.27;10.05;;;;;;;9.35;72.07;101443.09;5108210;28;20102;-66
2022/03/12 07:39:49;;;;;;;13.18;10.93;;;;;;;9.35;71.62;101440.44;5085519;28;20024;-67
2022/03/12 07:42:14;;;;;;;13.15;11.38;;;;;;;9.45;71.83;101450.53;5096689;28;20027;-67
2022/03/12 07:44:40;;;;;;;11.05;10.05;;;;;;;9.54;71.39;101457.19;5058626;28;20035;-66
2022/03/12 07:47:07;;;;;;;12.48;9.95;;;;;;;9.66;70.91;101458.41;5108308;28;20089;-67
2022/03/12 07:49:35;;;;;;;12.32;10.18;;;;;;;9.70;70.64;101462.59;5111805;28;20418;-67
2022/03/12 07:52:01;;;;;;;10.38;9.27;;;;;;;9.77;70.70;101464.03;5109308;28;20059;-66
2022/03/12 07:54:27;;;;;;;12.45;9.57;;;;;;;9.86;70.20;101460.06;5099685;28;20467;-67
2022/03/12 07:56:55;;;;;;;13.45;10.65;;;;;;;9.93;69.99;101461.47;5096016;28;20039;-67
2022/03/12 07:59:21;;;;;;;11.20;9.88;;;;;;;10.01;69.97;101464.59;5111081;28;20102;-66
2022/03/12 08:01:47;;;;;;;11.23;10.02;;;;;;;10.10;69.64;101472.09;5085382;28;20032;-67
2022/03/12 08:04:13;;;;;;;13.40;10.10;;;;;;;10.17;69.43;101472.63;5086848;28;20031;-67
2022/03/12 08:06:38;;;;;;;11.40;9.93;;;;;;;10.20;69.17;101469.81;5076228;28;20142;-67
2022/03/12 08:09:06;;;;;;;14.07;10.55;;;;;;;10.22;69.31;101478.59;5099349;28;20030;-67
2022/03/12 08:11:32;;;;;;;12.27;10.48;;;;;;;10.16;69.14;101477.09;5074945;28;20028;-67
2022/03/12 08:14:07;;;;;;;11.57;10.05;;;;;;;10.28;69.10;101477.44;5077404;28;20031;-67
2022/03/12 08:16:34;;;;;;;11.32;9.85;;;;;;;10.32;68.76;101493.13;5074537;28;20024;-67
2022/03/12 08:19:02;;;;;;;13.30;11.32;;;;;;;10.36;68.49;101493.88;5093296;28;20065;-67
2022/03/12 08:21:27;;;;;;;11.32;9.68;;;;;;;10.44;68.33;101495.19;5093210;28;20494;-67
2022/03/12 08:23:53;;;;;;;14.27;10.50;;;;;;;10.61;68.14;101496.09;5074483;28;20031;-67
2022/03/12 08:26:19;;;;;;;10.85;9.60;;;;;;;10.67;67.49;101501.94;5076676;28;20093;-66
2022/03/12 08:28:46;;;;;;;10.68;9.52;;;;;;;10.68;67.51;101503.69;5074807;28;20032;-67
2022/03/12 08:31:12;;;;;;;11.75;10.18;;;;;;;10.70;67.57;101511.56;5095951;28;20393;-67
2022/03/12 08:33:37;;;;;;;18.88;10.57;;;;;;;10.80;67.19;101509.28;5113176;28;20027;-67
2022/03/12 08:36:07;;;;;;;14.27;10.45;;;;;;;10.84;67.05;101502.84;5112460;28;20443;-67
2022/03/12 08:38:35;;;;;;;11.73;9.85;;;;;;;10.88;66.86;101488.44;5086589;28;20016;-67
2022/03/12 08:41:02;;;;;;;13.45;10.18;;;;;;;11.20;66.27;101512.44;5082958;28;20027;-67
2022/03/12 08:43:28;;;;;;;10.68;8.73;;;;;;;11.24;65.49;101514.00;5113168;28;20039;-67
2022/03/12 08:45:54;;;;;;;12.07;9.15;;;;;;;11.34;65.74;101513.41;5078323;28;20027;-67
2022/03/12 08:48:19;;;;;;;10.88;9.02;;;;;;;11.50;65.74;101520.53;5097697;28;20506;-67
2022/03/12 08:50:45;;;;;;;10.50;8.73;;;;;;;11.60;65.18;101513.75;5074257;28;20036;-67
2022/03/12 08:53:11;;;;;;;8.90;8.00;;;;;;;11.68;64.34;101522.16;5074424;28;20110;-67
2022/03/12 08:55:38;;;;;;;11.30;7.30;;;;;;;11.74;63.37;101529.81;5082323;28;20030;-67
2022/03/12 08:58:03;;;;;;;8.80;7.25;;;;;;;11.81;63.52;101533.84;5077941;28;20498;-67
2022/03/12 09:00:28;;;;;;;10.38;6.53;;;;;;;11.83;63.01;101523.94;5080159;28;20028;-67
2022/03/12 09:02:56;;;;;;;9.02;6.53;;;;;;;11.84;62.52;101530.13;5112589;28;20102;-67
2022/03/12 09:05:25;;;;;;;12.98;6.93;;;;;;;11.89;61.96;101532.59;5112313;28;20051;-67
2022/03/12 09:07:52;;;;;;;8.20;6.10;;;;;;;11.99;62.47;101531.94;5094686;28;20028;-67
2022/03/12 09:10:19;;;;;;;7.68;6.43;;;;;;;12.03;61.30;101536.16;5094282;28;20100;-67
2022/03/12 09:12:44;;;;;;;10.20;6.38;;;;;;;11.96;60.86;101528.59;5092817;28;20059;-67
2022/03/12 09:15:10;;;;;;;7.70;6.65;;;;;;;12.00;61.23;101531.00;5056939;28;20036;-67
2022/03/12 09:17:36;;;;;;;7.95;6.25;;;;;;;12.03;61.37;101529.97;5080630;28;20023;-67
2022/03/12 09:20:06;;;;;;;10.50;7.07;;;;;;;12.05;61.20;101533.41;5112265;28;20023;-67
2022/03/12 09:22:31;;;;;;;10.00;5.45;;;;;;;12.04;60.21;101545.03;5101776;28;20026;-67
2022/03/12 09:24:57;;;;;;;9.43;6.22;;;;;;;11.98;60.98;101537.38;5091585;28;20040;-67
2022/03/12 09:27:25;;;;;;;8.40;6.50;;;;;;;12.05;60.11;101544.91;5092262;28;20390;-67
2022/03/12 09:29:51;;;;;;;8.73;5.97;;;;;;;12.17;59.94;101534.47;5112306;28;20189;-67
2022/03/12 09:32:17;;;;;;;9.45;6.20;;;;;;;12.22;58.76;101533.28;5076671;28;20035;-67
2022/03/12 09:34:43;;;;;;;10.73;6.10;;;;;;;12.25;59.04;101533.09;5111911;28;20039;-67
2022/03/12 09:37:09;;;;;;;8.13;5.50;;;;;;;12.36;58.14;101555.63;5073491;28;20024;-67
2022/03/12 09:39:35;;;;;;;9.18;5.53;;;;;;;12.44;58.29;101531.97;5061420;28;20390;-67
2022/03/12 09:42:01;;;;;;;7.13;5.60;;;;;;;12.57;56.83;101537.47;5097595;28;20028;-67
2022/03/12 09:44:27;;;;;;;6.88;4.72;;;;;;;12.63;56.35;101529.09;5095669;28;20036;-67
2022/03/12 09:46:52;;;;;;;8.52;4.63;;;;;;;12.70;55.72;101531.25;5089527;28;20096;-67
2022/03/12 09:49:18;;;;;;;9.55;5.45;;;;;;;12.75;55.89;101540.81;5107843;28;20084;-67
2022/03/12 09:51:44;;;;;;;7.25;5.03;;;;;;;12.69;55.70;101534.91;5086199;28;20130;-67
2022/03/12 09:54:11;;;;;;;10.90;5.13;;;;;;;12.63;55.82;101542.44;5091261;28;20036;-68
2022/03/12 09:56:38;;;;;;;9.85;5.03;;;;;;;12.55;55.74;101553.56;5102124;28;20034;-68
2022/03/12 09:59:06;;;;;;;9.80;4.63;;;;;;;12.49;55.06;101556.59;5111817;28;20023;-67
2022/03/12 10:01:32;;;;;;;8.65;4.95;;;;;;;12.46;55.11;101546.09;5110934;28;20061;-68
2022/03/12 10:03:58;;;;;;;10.50;5.20;;;;;;;12.50;55.25;101544.97;5111448;28;20036;-68
2022/03/12 10:06:28;;;;;;;9.65;4.72;;;;;;;12.60;54.99;101551.47;5111311;28;20055;-67
2022/03/12 10:08:56;;;;;;;5.50;4.50;;;;;;;12.71;54.97;101550.84;5093206;28;20028;-67
2022/03/12 10:11:25;;;;;;;9.07;4.55;;;;;;;12.82;54.28;101553.69;5082921;28;20031;-68
2022/03/12 10:13:51;;;;;;;13.30;4.47;;;;;;;12.83;54.55;101531.38;5091494;28;20544;-67
2022/03/12 10:16:18;;;;;;;11.32;4.50;;;;;;;13.16;54.49;101564.97;5093421;28;20024;-68
2022/03/12 10:18:45;;;;;;;10.93;4.45;;;;;;;13.08;53.37;101561.91;5060064;28;20028;-68
2022/03/12 10:21:10;;;;;;;10.60;4.38;;;;;;;13.19;52.73;101560.28;5104075;28;20016;-67
2022/03/12 10:23:38;;;;;;;10.88;4.60;;;;;;;13.11;53.60;101559.91;5090471;28;20382;-68
2022/03/12 10:26:04;;;;;;;10.65;4.53;;;;;;;13.08;53.18;101559.22;5082095;28;20054;-67
2022/03/12 10:28:34;;;;;;;8.90;4.47;;;;;;;13.08;53.43;101545.88;5059427;28;20478;-67
2022/03/12 10:31:03;;;;;;;8.02;4.43;;;;;;;13.25;52.71;101552.84;5092320;28;20104;-67
2022/03/12 10:33:31;;;;;;;8.68;3.90;;;;;;;13.33;52.65;101543.44;5091035;28;20042;-66
2022/03/12 10:36:14;;;;;;;11.40;4.00;;;;;;;13.60;52.56;101550.63;5090406;28;20031;-66
2022/03/12 10:38:45;;;;;;;8.63;4.00;;;;;;;13.87;51.28;101550.63;5092409;28;20023;-67
2022/03/12 10:41:12;;;;;;;10.45;3.58;;;;;;;14.15;50.29;101555.03;5111382;28;20024;-67
2022/03/12 10:43:54;;;;;;;7.47;3.97;;;;;;;14.28;50.43;101547.03;5094694;28;20103;-67
2022/03/12 10:46:27;;;;;;;8.63;3.80;;;;;;;14.51;49.71;101561.53;5109863;28;20027;-67
2022/03/12 10:48:57;;;;;;;7.25;4.13;;;;;;;14.40;48.84;101553.38;5077662;28;20476;-68
2022/03/12 10:51:28;;;;;;;6.75;3.80;;;;;;;14.56;48.86;101553.22;5101200;28;20028;-67
2022/03/12 10:54:07;;;;;;;6.78;3.28;;;;;;;14.69;48.73;101544.22;5094056;28;20051;-67
2022/03/12 10:56:51;;;;;;;7.40;3.67;;;;;;;15.18;47.79;101546.16;5075235;28;20028;-67
2022/03/12 10:59:19;;;;;;;7.43;3.72;;;;;;;15.36;46.75;101551.16;5101302;28;20352;-67
2022/03/12 11:01:55;;;;;;;6.32;3.20;;;;;;;15.56;45.68;101547.91;5077139;28;20032;-67
2022/03/12 11:04:26;;;;;;;9.10;3.65;;;;;;;15.74;45.53;101548.41;5093818;28;20105;-67
2022/03/12 11:06:54;;;;;;;6.47;3.40;;;;;;;15.77;44.66;101531.22;5090084;28;20044;-67
2022/03/12 11:09:34;;;;;;;8.30;3.53;;;;;;;16.08;43.84;101557.47;5085594;28;20031;-67
2022/03/12 11:12:30;;;;;;;8.60;3.25;;;;;;;16.43;43.13;101562.00;5111110;28;20027;-67
2022/03/12 11:15:15;;;;;;;6.95;2.92;;;;;;;16.46;42.65;101564.44;5102704;28;20034;-67
2022/03/12 11:17:49;;;;;;;10.05;3.53;;;;;;;16.36;42.62;101563.44;5110948;28;20555;-67
2022/03/12 11:20:38;;;;;;;7.28;3.25;;;;;;;16.54;42.87;101562.03;5110603;28;20431;-67